Time;durP1;ratioP1;P1;durP2;ratioP2;P2;SDS_P1;SDS_P2;PMS_P1;PMS_P2;Temp;Humidity;BMP_temperature;BMP_pressure;BME280_temperature;BME280_humidity;BME280_pressure;Samples;Min_cycle;Max_cycle;Signal;HPM_P1;HPM_P2
2024/01/11 00:04:25;;;;;;;8.75;5.28;;;10.90;99.90;;;;;;10564460;27;20043;-69
2024/01/11 00:09:28;;;;;;;17.52;5.53;;;10.90;99.90;;;;;;10567900;27;20779;-69
2024/01/11 00:14:31;;;;;;;9.60;5.37;;;10.90;99.90;;;;;;10561356;27;20058;-69
2024/01/11 00:19:33;;;;;;;11.35;4.75;;;10.80;99.90;;;;;;10568605;28;20050;-69
2024/01/11 00:24:35;;;;;;;10.87;5.50;;;10.80;99.90;;;;;;10570320;28;20658;-69
2024/01/11 00:29:39;;;;;;;8.18;4.70;;;10.80;99.90;;;;;;10574098;27;20520;-70
2024/01/11 00:34:41;;;;;;;11.32;5.75;;;10.70;99.90;;;;;;10573122;27;20054;-69
2024/01/11 00:39:43;;;;;;;10.13;5.30;;;10.80;99.90;;;;;;10576560;27;20461;-69
2024/01/11 00:44:47;;;;;;;6.55;4.40;;;10.80;99.90;;;;;;10577250;27;20062;-68
2024/01/11 00:49:49;;;;;;;10.88;5.63;;;10.70;99.90;;;;;;10576615;27;20043;-68
2024/01/11 00:54:51;;;;;;;10.00;5.03;;;10.70;99.90;;;;;;10572630;27;20059;-69
2024/01/11 00:59:54;;;;;;;9.43;4.82;;;10.70;99.90;;;;;;10575294;27;20051;-69
2024/01/11 01:04:56;;;;;;;9.63;5.00;;;10.70;99.90;;;;;;10565958;27;20533;-69
2024/01/11 01:09:58;;;;;;;8.90;5.50;;;10.70;99.90;;;;;;10570032;27;20979;-69
2024/01/11 01:15:02;;;;;;;9.07;5.25;;;10.70;99.90;;;;;;10570607;27;20418;-68
2024/01/11 01:20:05;;;;;;;14.90;7.10;;;10.70;99.90;;;;;;10569484;27;20048;-70
2024/01/11 01:25:08;;;;;;;13.52;6.60;;;10.70;99.90;;;;;;10570548;27;20100;-68
2024/01/11 01:30:15;;;;;;;10.27;5.07;;;10.70;99.90;;;;;;10566845;27;20119;-69
2024/01/11 01:35:17;;;;;;;11.80;6.20;;;10.60;99.90;;;;;;10578961;27;20056;-69
2024/01/11 01:40:19;;;;;;;12.13;6.27;;;10.60;99.90;;;;;;10572500;27;20119;-69
2024/01/11 01:45:23;;;;;;;9.02;4.78;;;10.60;99.90;;;;;;10566375;27;20047;-69
2024/01/11 01:50:25;;;;;;;7.95;4.95;;;10.60;99.90;;;;;;10572391;27;20401;-69
2024/01/11 01:55:28;;;;;;;8.27;4.30;;;10.50;99.90;;;;;;10574607;27;20043;-69
2024/01/11 02:00:32;;;;;;;12.27;5.82;;;10.40;99.90;;;;;;10565110;27;20503;-69
2024/01/11 02:05:34;;;;;;;13.45;6.72;;;10.50;99.90;;;;;;10561500;27;20063;-70
2024/01/11 02:10:36;;;;;;;8.90;5.37;;;10.50;99.90;;;;;;10567384;27;20295;-69
2024/01/11 02:15:40;;;;;;;7.95;4.78;;;10.50;99.90;;;;;;10568185;27;20055;-70
2024/01/11 02:20:42;;;;;;;12.65;6.28;;;10.40;99.90;;;;;;10574388;27;20058;-69
2024/01/11 02:25:47;;;;;;;8.40;5.17;;;10.40;99.90;;;;;;10578508;27;20044;-69
2024/01/11 02:30:48;;;;;;;7.93;4.95;;;10.40;99.90;;;;;;10571996;27;20108;-69
2024/01/11 02:35:51;;;;;;;10.45;5.45;;;10.40;99.90;;;;;;10585090;27;20046;-70
2024/01/11 02:40:56;;;;;;;6.47;4.60;;;10.40;99.90;;;;;;10581414;27;20046;-71
2024/01/11 02:45:59;;;;;;;11.65;6.82;;;10.30;99.90;;;;;;10573092;27;20126;-70
2024/01/11 02:51:01;;;;;;;;;;;10.30;99.90;;;;;;10578495;27;20532;-69
2024/01/11 02:56:05;;;;;;;17.02;9.02;;;10.30;99.90;;;;;;10580538;27;19931;-69
2024/01/11 03:01:07;;;;;;;10.70;6.53;;;10.30;99.90;;;;;;10577062;27;20133;-69
2024/01/11 03:06:09;;;;;;;8.50;4.77;;;10.30;99.90;;;;;;10572617;27;20084;-70
2024/01/11 03:11:13;;;;;;;10.77;4.82;;;10.30;99.90;;;;;;10578067;27;20063;-69
2024/01/11 03:16:15;;;;;;;11.63;6.50;;;10.20;99.90;;;;;;10568586;27;20046;-70
2024/01/11 03:21:18;;;;;;;10.27;5.83;;;10.20;99.90;;;;;;10574493;27;20382;-69
2024/01/11 03:26:21;;;;;;;8.25;4.88;;;10.20;99.90;;;;;;10582340;27;20105;-70
2024/01/11 03:31:23;;;;;;;12.55;7.25;;;10.20;99.90;;;;;;10571032;27;20517;-69
2024/01/11 03:36:26;;;;;;;10.13;4.93;;;10.20;99.90;;;;;;10570674;27;20048;-70
2024/01/11 03:41:30;;;;;;;14.43;8.00;;;10.10;99.90;;;;;;10564614;27;20046;-70
2024/01/11 03:46:33;;;;;;;12.40;5.65;;;10.10;99.90;;;;;;10565745;27;20875;-69
2024/01/11 03:51:35;;;;;;;10.38;5.55;;;10.10;99.90;;;;;;10580313;27;20062;-69
2024/01/11 03:56:40;;;;;;;7.97;5.17;;;10.20;99.90;;;;;;10566487;27;20054;-70
2024/01/11 04:15:30;;;;;;;9.90;5.75;;;10.10;99.90;;;;;;10572267;27;2162628;-70
2024/01/11 04:20:32;;;;;;;7.60;4.93;;;10.20;99.90;;;;;;10636965;27;20705;-69
2024/01/11 04:25:36;;;;;;;8.93;5.10;;;10.20;99.90;;;;;;10630903;27;22688;-69
2024/01/11 04:30:39;;;;;;;8.73;5.03;;;10.20;99.90;;;;;;10632432;27;20152;-68
2024/01/11 04:35:42;;;;;;;8.82;5.20;;;10.20;99.90;;;;;;10635612;27;20042;-69
2024/01/11 04:40:44;;;;;;;11.50;5.63;;;10.20;99.90;;;;;;10630219;27;20086;-70
2024/01/11 04:45:47;;;;;;;14.27;7.30;;;10.20;99.90;;;;;;10622612;27;20058;-69
2024/01/11 04:50:49;;;;;;;10.75;4.97;;;10.20;99.90;;;;;;10628256;27;20517;-68
2024/01/11 04:55:51;;;;;;;8.18;5.40;;;10.50;99.90;;;;;;10623418;27;20074;-69
2024/01/11 05:00:55;;;;;;;11.65;7.20;;;10.50;99.90;;;;;;10623052;27;20051;-69
2024/01/11 05:05:57;;;;;;;9.30;5.32;;;10.50;99.90;;;;;;10617719;27;20043;-69
2024/01/11 05:10:59;;;;;;;19.30;9.20;;;10.60;99.90;;;;;;10630800;27;20538;-69
2024/01/11 05:16:03;;;;;;;17.15;8.77;;;10.60;99.90;;;;;;10626074;27;20043;-69
2024/01/11 05:21:05;;;;;;;20.05;11.00;;;10.60;99.90;;;;;;10632688;27;20039;-68
2024/01/11 05:26:07;;;;;;;13.68;6.65;;;10.60;99.90;;;;;;10574368;27;20107;-69
2024/01/11 05:31:12;;;;;;;11.43;6.70;;;10.60;99.90;;;;;;10590128;27;20153;-69
2024/01/11 05:36:14;;;;;;;9.85;5.15;;;10.50;99.90;;;;;;10598636;27;20050;-69
2024/01/11 05:41:16;;;;;;;8.70;5.70;;;10.50;99.90;;;;;;10598041;27;20162;-69
2024/01/11 05:46:20;;;;;;;12.33;6.30;;;10.50;99.90;;;;;;10592452;27;20067;-71
2024/01/11 05:51:22;;;;;;;12.07;6.45;;;10.50;99.90;;;;;;10600873;27;22660;-68
2024/01/11 05:56:24;;;;;;;7.35;4.53;;;10.60;99.90;;;;;;10592229;27;20136;-69
2024/01/11 06:01:28;;;;;;;6.25;4.80;;;10.50;99.90;;;;;;10585837;27;20066;-69
2024/01/11 06:06:30;;;;;;;9.68;5.72;;;10.50;99.90;;;;;;10593237;27;20047;-69
2024/01/11 06:11:33;;;;;;;9.45;5.50;;;10.50;99.90;;;;;;10591147;27;20075;-69
2024/01/11 06:16:36;;;;;;;9.18;5.28;;;10.60;99.90;;;;;;10590831;27;20047;-67
2024/01/11 06:21:43;;;;;;;14.43;7.32;;;10.60;99.90;;;;;;10595882;27;20043;-67
2024/01/11 06:26:45;;;;;;;14.43;8.32;;;10.60;99.90;;;;;;10595590;27;20496;-68
2024/01/11 06:31:49;;;;;;;11.25;6.85;;;10.60;99.90;;;;;;10603763;27;20070;-67
2024/01/11 06:36:51;;;;;;;13.75;6.43;;;10.60;99.90;;;;;;10598391;27;20096;-67
2024/01/11 06:41:53;;;;;;;23.17;10.75;;;10.50;99.90;;;;;;10587904;27;20044;-68
2024/01/11 06:46:56;;;;;;;12.90;6.40;;;10.60;99.90;;;;;;10594194;27;20831;-68
2024/01/11 06:51:58;;;;;;;22.77;11.05;;;10.50;99.90;;;;;;10599053;27;20650;-68
2024/01/11 06:57:00;;;;;;;15.10;7.17;;;10.30;99.90;;;;;;10589507;27;20058;-66
2024/01/11 07:02:04;;;;;;;16.60;9.27;;;10.30;99.90;;;;;;10598704;27;20043;-68
2024/01/11 07:07:06;;;;;;;21.70;12.20;;;10.20;99.90;;;;;;10596743;27;20057;-68
2024/01/11 07:12:08;;;;;;;27.40;16.00;;;10.10;99.90;;;;;;10597957;27;20081;-70
2024/01/11 07:17:12;;;;;;;23.63;13.83;;;10.10;99.90;;;;;;10600879;27;20050;-70
2024/01/11 07:22:16;;;;;;;21.67;12.90;;;10.10;99.90;;;;;;10592570;27;20058;-70
2024/01/11 07:27:18;;;;;;;19.17;8.05;;;10.10;99.90;;;;;;10594991;27;20047;-71
2024/01/11 07:32:29;;;;;;;17.53;9.63;;;10.60;99.90;;;;;;10599453;27;20040;-70
2024/01/11 07:37:33;;;;;;;13.40;7.63;;;10.30;99.90;;;;;;10598685;27;20400;-70
2024/01/11 07:42:35;;;;;;;14.32;7.85;;;10.10;99.90;;;;;;10594729;27;20047;-74
2024/01/11 07:47:40;;;;;;;15.77;9.40;;;10.00;99.90;;;;;;10593252;27;20061;-72
2024/01/11 07:52:42;;;;;;;19.35;9.68;;;10.00;99.90;;;;;;10598149;27;20668;-76
2024/01/11 07:57:47;;;;;;;9.87;6.37;;;9.90;99.90;;;;;;10592910;27;20058;-71
2024/01/11 08:02:50;;;;;;;16.83;9.32;;;10.00;99.90;;;;;;10586961;27;20039;-71
2024/01/11 08:07:52;;;;;;;23.58;12.20;;;9.90;99.90;;;;;;10596518;27;20490;-70
2024/01/11 08:12:55;;;;;;;15.47;8.53;;;9.90;99.90;;;;;;10596434;27;20054;-74
2024/01/11 08:18:01;;;;;;;20.75;10.45;;;9.90;99.90;;;;;;10580691;27;21371;-71
2024/01/11 08:23:04;;;;;;;16.45;9.23;;;10.00;99.90;;;;;;10595075;27;20039;-71
2024/01/11 08:28:07;;;;;;;18.47;9.33;;;9.90;99.90;;;;;;10588449;27;20054;-71
2024/01/11 08:33:10;;;;;;;16.45;9.32;;;10.00;99.90;;;;;;10581188;27;20387;-69
2024/01/11 08:38:12;;;;;;;25.42;16.00;;;9.80;99.90;;;;;;10579151;27;20063;-70
2024/01/11 08:43:14;;;;;;;13.60;7.80;;;9.80;99.90;;;;;;10590010;27;20047;-68
2024/01/11 08:48:18;;;;;;;20.98;9.85;;;9.80;99.90;;;;;;10585181;27;20058;-69
2024/01/11 08:53:21;;;;;;;18.63;9.63;;;9.80;99.90;;;;;;10584339;27;20094;-69
2024/01/11 08:58:23;;;;;;;15.07;7.88;;;9.80;99.90;;;;;;10577624;27;20490;-72
2024/01/11 09:03:29;;;;;;;19.38;11.45;;;9.70;99.90;;;;;;10579857;27;20078;-70
2024/01/11 09:08:32;;;;;;;18.33;9.15;;;9.70;99.90;;;;;;10589428;27;21216;-70
2024/01/11 09:13:34;;;;;;;19.25;10.25;;;9.90;99.90;;;;;;10596595;27;20050;-70
2024/01/11 09:18:38;;;;;;;26.23;14.65;;;9.90;99.90;;;;;;10599594;27;20038;-69
2024/01/11 09:23:41;;;;;;;25.27;13.38;;;10.00;99.90;;;;;;10604320;27;20047;-71
2024/01/11 09:28:43;;;;;;;;;;;10.00;99.90;;;;;;10598460;27;20047;-69
2024/01/11 09:33:48;;;;;;;34.83;19.73;;;9.90;99.90;;;;;;10597951;27;19927;-70
2024/01/11 09:38:54;;;;;;;30.63;17.50;;;10.00;99.90;;;;;;10598276;27;20736;-71
2024/01/11 09:44:01;;;;;;;12.35;7.18;;;10.00;99.90;;;;;;10607402;27;20674;-69
2024/01/11 09:49:05;;;;;;;21.73;12.73;;;10.10;99.90;;;;;;10594032;27;20051;-70
2024/01/11 09:54:12;;;;;;;21.23;11.25;;;10.10;99.90;;;;;;10592312;27;20487;-70
2024/01/11 09:59:15;;;;;;;26.20;11.82;;;10.20;99.90;;;;;;10590651;27;20043;-73
2024/01/11 10:04:19;;;;;;;26.77;13.85;;;10.30;99.90;;;;;;10591677;27;20175;-72
2024/01/11 10:09:22;;;;;;;25.35;13.95;;;10.30;99.90;;;;;;10595410;27;20069;-71
2024/01/11 10:14:24;;;;;;;12.73;7.80;;;10.10;99.90;;;;;;10581359;27;20055;-71
2024/01/11 10:19:29;;;;;;;16.10;9.63;;;10.20;99.90;;;;;;10590254;27;20048;-70
2024/01/11 10:24:31;;;;;;;15.80;8.68;;;10.50;99.90;;;;;;10586423;27;20042;-69
2024/01/11 10:29:36;;;;;;;13.77;8.27;;;10.60;99.90;;;;;;10580408;27;21087;-67
2024/01/11 10:34:42;;;;;;;13.95;8.15;;;10.50;99.90;;;;;;10588806;27;20054;-71
2024/01/11 10:39:44;;;;;;;12.60;5.53;;;10.60;99.90;;;;;;10594107;27;20043;-73
2024/01/11 10:44:50;;;;;;;13.87;7.47;;;10.60;99.90;;;;;;10581078;27;20080;-73
2024/01/11 10:49:59;;;;;;;9.38;6.03;;;10.70;99.90;;;;;;10585871;27;20047;-71
2024/01/11 10:55:03;;;;;;;10.45;5.90;;;10.70;99.90;;;;;;10585477;27;20055;-74
2024/01/11 11:00:11;;;;;;;15.27;8.52;;;10.80;99.90;;;;;;10567592;27;20200;-69
2024/01/11 11:05:19;;;;;;;9.35;5.40;;;10.70;99.90;;;;;;10589195;27;20819;-69
2024/01/11 11:10:22;;;;;;;14.55;7.50;;;10.70;99.90;;;;;;10584296;27;20055;-71
2024/01/11 11:15:25;;;;;;;18.58;8.43;;;10.90;99.90;;;;;;10586641;27;20083;-71
2024/01/11 11:20:29;;;;;;;18.20;8.27;;;11.00;99.90;;;;;;10586259;27;20054;-66
2024/01/11 11:25:31;;;;;;;24.33;8.77;;;11.00;99.90;;;;;;10587720;27;20062;-67
2024/01/11 11:30:34;;;;;;;23.38;10.88;;;11.00;99.90;;;;;;10586107;27;20085;-71
2024/01/11 11:35:38;;;;;;;17.20;9.90;;;10.50;99.90;;;;;;10589081;27;20163;-69
2024/01/11 11:40:42;;;;;;;19.52;9.15;;;10.20;99.90;;;;;;10575669;27;20043;-70
2024/01/11 11:45:46;;;;;;;20.60;8.60;;;10.50;99.90;;;;;;10572028;27;20039;-69
2024/01/11 11:51:02;;;;;;;18.88;8.63;;;10.80;99.90;;;;;;10583409;27;20235;-70
2024/01/11 11:56:06;;;;;;;16.35;8.35;;;11.00;99.90;;;;;;10563598;27;20153;-69
2024/01/11 12:01:10;;;;;;;15.10;8.18;;;11.10;99.90;;;;;;10576408;27;20047;-70
2024/01/11 12:06:14;;;;;;;15.90;8.77;;;11.10;99.90;;;;;;10585757;27;20058;-71
2024/01/11 12:11:19;;;;;;;15.88;8.15;;;11.30;99.90;;;;;;10589399;27;20204;-68
2024/01/11 12:16:21;;;;;;;20.02;7.55;;;11.30;99.90;;;;;;10581833;27;20604;-66
2024/01/11 12:21:26;;;;;;;18.73;7.70;;;11.20;99.90;;;;;;10588525;27;20047;-68
2024/01/11 12:26:28;;;;;;;19.23;7.45;;;11.20;99.90;;;;;;10589991;27;20054;-69
2024/01/11 12:31:30;;;;;;;14.57;7.00;;;11.20;99.90;;;;;;10583591;27;20804;-70
2024/01/11 12:36:33;;;;;;;17.85;8.23;;;11.20;99.90;;;;;;10598611;27;20867;-71
2024/01/11 12:41:37;;;;;;;13.15;6.95;;;11.20;99.90;;;;;;10593730;27;20929;-68
2024/01/11 12:46:38;;;;;;;;;;;11.30;99.90;;;;;;10600748;27;21347;-67
2024/01/11 12:51:42;;;;;;;16.55;9.60;;;11.30;99.90;;;;;;10600366;27;19934;-65
2024/01/11 12:56:45;;;;;;;16.00;5.97;;;11.50;99.90;;;;;;10592098;27;20166;-71
2024/01/11 13:01:47;;;;;;;11.67;6.00;;;11.60;99.90;;;;;;10601731;27;20054;-69
2024/01/11 13:06:51;;;;;;;9.30;5.10;;;11.60;99.90;;;;;;10596432;27;20382;-71
2024/01/11 13:11:53;;;;;;;12.27;6.18;;;11.70;99.90;;;;;;10596678;27;20145;-69
2024/01/11 13:16:56;;;;;;;15.00;7.93;;;11.70;99.90;;;;;;10594764;27;20054;-67
2024/01/11 13:22:00;;;;;;;10.90;5.47;;;11.80;99.90;;;;;;10584865;27;20054;-70
2024/01/11 13:27:03;;;;;;;15.10;9.60;;;11.90;99.90;;;;;;10591725;27;20418;-65
2024/01/11 13:32:06;;;;;;;10.05;5.07;;;11.80;99.90;;;;;;10588328;27;20155;-68
2024/01/11 13:37:09;;;;;;;9.38;6.35;;;11.80;99.90;;;;;;10587331;27;20058;-66
2024/01/11 13:42:12;;;;;;;12.15;7.78;;;11.80;99.90;;;;;;10592345;27;20558;-68
2024/01/11 13:47:14;;;;;;;13.70;8.63;;;11.80;99.90;;;;;;10593031;27;20401;-68
2024/01/11 13:52:17;;;;;;;15.37;8.83;;;11.80;99.90;;;;;;10596559;27;20058;-68
2024/01/11 13:57:20;;;;;;;13.77;7.38;;;11.80;99.90;;;;;;10595784;27;20061;-68
2024/01/11 14:02:22;;;;;;;19.65;9.07;;;11.80;99.90;;;;;;10600504;27;22182;-68
2024/01/11 14:07:25;;;;;;;11.10;5.97;;;11.80;99.90;;;;;;10593745;27;20047;-67
2024/01/11 14:12:27;;;;;;;15.63;9.35;;;11.90;99.90;;;;;;10591194;27;20104;-67
2024/01/11 14:17:29;;;;;;;14.93;8.90;;;11.70;99.90;;;;;;10592497;27;20038;-67
2024/01/11 14:22:32;;;;;;;13.60;7.47;;;11.90;99.90;;;;;;10599983;27;20058;-66
2024/01/11 14:27:34;;;;;;;14.23;9.23;;;12.00;99.90;;;;;;10604635;27;20057;-67
2024/01/11 14:32:37;;;;;;;8.43;5.55;;;11.90;99.90;;;;;;10595426;27;20050;-67
2024/01/11 14:37:41;;;;;;;19.50;9.03;;;12.00;99.90;;;;;;10603638;27;20066;-68
2024/01/11 14:42:46;;;;;;;14.52;8.70;;;12.00;99.90;;;;;;10591473;27;21396;-68
2024/01/11 14:47:50;;;;;;;17.60;9.23;;;11.90;99.90;;;;;;10594783;27;20051;-70
2024/01/11 14:52:57;;;;;;;16.65;9.02;;;11.90;99.90;;;;;;10581523;27;20111;-68
2024/01/11 14:57:59;;;;;;;16.75;9.23;;;12.00;99.90;;;;;;10594650;27;20121;-68
2024/01/11 15:03:02;;;;;;;16.33;9.87;;;12.00;99.90;;;;;;10596018;27;20422;-69
2024/01/11 15:08:06;;;;;;;14.73;9.40;;;12.00;99.90;;;;;;10591917;27;20107;-73
2024/01/11 15:13:09;;;;;;;17.55;10.80;;;12.00;99.90;;;;;;10592608;27;20048;-68
2024/01/11 15:18:11;;;;;;;13.80;6.82;;;12.00;99.90;;;;;;10595095;27;20598;-74
2024/01/11 15:23:18;;;;;;;13.80;9.37;;;12.00;99.90;;;;;;10594495;27;20046;-73
2024/01/11 15:28:21;;;;;;;10.80;7.22;;;12.10;99.90;;;;;;10591998;27;20050;-74
2024/01/11 15:33:23;;;;;;;17.17;10.85;;;12.20;99.90;;;;;;10594925;27;20574;-71
2024/01/11 15:38:28;;;;;;;16.08;10.30;;;12.20;99.90;;;;;;10590398;27;20058;-72
2024/01/11 15:43:40;;;;;;;21.33;9.75;;;12.20;99.90;;;;;;10593468;27;20054;-71
2024/01/11 15:48:43;;;;;;;16.63;10.25;;;12.30;99.90;;;;;;10592267;27;20778;-75
2024/01/11 15:53:46;;;;;;;;;;;12.20;99.90;;;;;;10595816;27;20188;-72
2024/01/11 15:58:55;;;;;;;7.05;4.50;;;12.40;99.90;;;;;;10581045;27;19945;-71
2024/01/11 16:03:57;;;;;;;17.15;11.40;;;12.50;99.90;;;;;;10587971;27;20081;-72
2024/01/11 16:09:01;;;;;;;15.65;8.98;;;12.50;99.90;;;;;;10585327;27;20047;-72
2024/01/11 16:14:04;;;;;;;9.23;5.13;;;12.50;99.90;;;;;;10592244;27;20053;-72
2024/01/11 16:19:06;;;;;;;18.55;11.85;;;12.50;99.90;;;;;;10591630;27;20059;-70
2024/01/11 16:24:09;;;;;;;5.50;4.00;;;12.50;99.90;;;;;;10589940;27;20111;-73
2024/01/11 16:29:11;;;;;;;18.95;11.52;;;12.50;99.90;;;;;;10583395;27;20493;-71
2024/01/11 16:34:13;;;;;;;12.50;7.93;;;12.50;99.90;;;;;;10585259;27;20272;-70
2024/01/11 16:39:17;;;;;;;10.07;5.83;;;12.50;99.90;;;;;;10585888;27;20802;-71
2024/01/11 16:44:19;;;;;;;13.95;8.30;;;12.50;99.90;;;;;;10585930;27;20061;-71
2024/01/11 16:49:23;;;;;;;19.07;11.40;;;12.50;99.90;;;;;;10581926;27;20078;-71
2024/01/11 16:54:26;;;;;;;18.02;6.68;;;12.50;99.90;;;;;;10568468;27;20158;-71
2024/01/11 16:59:28;;;;;;;5.32;3.00;;;12.70;99.90;;;;;;10598707;27;20047;-72
2024/01/11 17:04:31;;;;;;;19.20;11.87;;;12.70;99.90;;;;;;10592982;27;20506;-71
2024/01/11 17:09:34;;;;;;;24.30;11.75;;;12.00;99.90;;;;;;10599844;27;20115;-71
2024/01/11 17:14:37;;;;;;;14.93;8.07;;;11.60;99.90;;;;;;10567243;27;20047;-71
2024/01/11 17:19:39;;;;;;;24.23;8.75;;;11.50;99.90;;;;;;10593912;27;20159;-70
2024/01/11 17:24:43;;;;;;;24.40;5.22;;;11.10;99.90;;;;;;10604427;27;20047;-71
2024/01/11 17:29:46;;;;;;;20.88;3.42;;;10.80;99.90;;;;;;10580475;27;20151;-72
2024/01/11 17:34:51;;;;;;;10.45;2.47;;;10.20;99.90;;;;;;10584126;27;20217;-71
2024/01/11 17:39:56;;;;;;;23.85;3.28;;;10.00;99.90;;;;;;10597848;27;20043;-71
2024/01/11 17:44:58;;;;;;;25.40;4.32;;;10.20;99.90;;;;;;10593811;27;20112;-72
2024/01/11 17:50:01;;;;;;;16.80;3.57;;;10.40;99.90;;;;;;10593776;27;20054;-71
2024/01/11 17:55:06;;;;;;;20.73;3.55;;;10.40;99.90;;;;;;10600139;27;20145;-71
2024/01/11 18:00:09;;;;;;;17.60;2.88;;;10.60;99.90;;;;;;10593215;27;20043;-71
2024/01/11 18:05:11;;;;;;;;;;;10.00;99.90;;;;;;10592787;27;20043;-71
2024/01/11 18:10:17;;;;;;;26.08;3.13;;;9.90;99.90;;;;;;10583027;27;19919;-70
2024/01/11 18:15:20;;;;;;;20.55;3.72;;;10.00;99.90;;;;;;10591610;27;20051;-72
2024/01/11 18:20:22;;;;;;;22.92;4.25;;;10.10;99.90;;;;;;10594734;27;20098;-70
2024/01/11 18:25:25;;;;;;;23.95;5.10;;;10.20;99.90;;;;;;10590122;27;20050;-70
2024/01/11 18:30:27;;;;;;;28.73;4.72;;;10.20;99.90;;;;;;10594721;27;20046;-71
2024/01/11 18:35:31;;;;;;;27.03;3.20;;;10.60;99.90;;;;;;10597354;27;20047;-68
2024/01/11 18:40:34;;;;;;;21.88;4.45;;;10.30;99.90;;;;;;10590232;27;20061;-72
2024/01/11 18:45:38;;;;;;;22.38;3.65;;;10.50;99.90;;;;;;10590505;27;20043;-71
2024/01/11 18:50:40;;;;;;;22.48;4.00;;;10.70;99.90;;;;;;10592467;27;20077;-71
2024/01/11 18:55:44;;;;;;;14.68;2.35;;;11.00;99.90;;;;;;10590237;27;20853;-71
2024/01/11 19:00:46;;;;;;;25.50;4.15;;;11.20;99.90;;;;;;10593599;27;20046;-71
2024/01/11 19:05:48;;;;;;;19.10;3.17;;;10.80;99.90;;;;;;10585087;27;20191;-68
2024/01/11 19:10:52;;;;;;;30.02;3.88;;;10.60;99.90;;;;;;10589412;27;20076;-70
2024/01/11 19:15:54;;;;;;;17.13;2.80;;;10.10;99.90;;;;;;10574177;27;20883;-71
2024/01/11 19:20:57;;;;;;;20.80;3.33;;;9.90;99.90;;;;;;10590424;27;20079;-71
2024/01/11 19:26:01;;;;;;;21.70;4.88;;;9.60;99.90;;;;;;10597585;27;20669;-70
2024/01/11 19:31:04;;;;;;;21.80;3.25;;;10.00;99.90;;;;;;10591695;27;20058;-70
2024/01/11 19:36:07;;;;;;;29.17;5.60;;;9.80;99.90;;;;;;10594565;27;20058;-72
2024/01/11 19:41:12;;;;;;;17.43;3.57;;;9.40;99.90;;;;;;10592901;27;20410;-71
2024/01/11 19:46:18;;;;;;;16.55;3.30;;;9.40;99.90;;;;;;10581326;27;20425;-70
2024/01/11 19:51:19;;;;;;;26.60;3.63;;;9.90;99.90;;;;;;10596386;27;20061;-71
2024/01/11 19:56:27;;;;;;;21.70;3.67;;;9.90;99.90;;;;;;10591992;27;20495;-67
2024/01/11 20:01:29;;;;;;;24.90;2.90;;;9.90;99.90;;;;;;10592434;27;20062;-71
2024/01/11 20:06:32;;;;;;;29.13;3.03;;;11.00;99.90;;;;;;10582496;27;20818;-69
2024/01/11 20:11:38;;;;;;;17.77;2.80;;;11.60;99.90;;;;;;10589675;27;20078;-69
2024/01/11 20:16:40;;;;;;;23.08;4.07;;;12.30;99.90;;;;;;10589541;27;20166;-70
2024/01/11 20:21:42;;;;;;;16.25;3.10;;;12.40;99.90;;;;;;10588831;27;20047;-69
2024/01/11 20:26:46;;;;;;;21.33;2.85;;;12.40;99.90;;;;;;10585326;27;20046;-69
2024/01/11 20:31:48;;;;;;;18.13;3.45;;;12.50;99.90;;;;;;10576986;27;20054;-70
2024/01/11 20:36:50;;;;;;;35.67;4.83;;;12.90;99.90;;;;;;10586445;27;20051;-68
2024/01/11 20:41:57;;;;;;;26.73;5.35;;;13.00;99.90;;;;;;10589776;27;20589;-69
2024/01/11 20:46:59;;;;;;;15.00;4.95;;;12.90;99.90;;;;;;10585502;27;20054;-69
2024/01/11 20:52:01;;;;;;;30.80;4.00;;;13.10;99.90;;;;;;10586811;27;20116;-69
2024/01/11 20:57:05;;;;;;;32.63;3.97;;;13.10;99.90;;;;;;10580003;27;20047;-69
2024/01/11 21:02:08;;;;;;;39.88;6.47;;;13.10;99.90;;;;;;10599533;27;20484;-69
2024/01/11 21:07:10;;;;;;;30.25;4.63;;;13.10;99.90;;;;;;10596279;27;20119;-69
2024/01/11 21:12:14;;;;;;;16.58;3.22;;;13.20;99.90;;;;;;10597665;27;20047;-70
2024/01/11 21:17:16;;;;;;;19.38;3.30;;;13.20;99.90;;;;;;10597468;27;20050;-70
2024/01/11 21:22:19;;;;;;;20.00;2.87;;;13.20;99.90;;;;;;10597315;27;20111;-70
2024/01/11 21:27:23;;;;;;;31.92;4.40;;;13.20;99.90;;;;;;10598353;27;20050;-68
2024/01/11 21:32:25;;;;;;;22.35;3.83;;;13.20;99.90;;;;;;10599211;27;20057;-70
2024/01/11 21:37:27;;;;;;;21.40;3.37;;;13.30;99.90;;;;;;10604271;27;20046;-69
2024/01/11 21:42:31;;;;;;;25.07;4.73;;;13.30;99.90;;;;;;10597089;27;20043;-69
2024/01/11 21:47:36;;;;;;;29.27;3.92;;;13.50;99.90;;;;;;10602590;27;20227;-70
2024/01/11 21:52:38;;;;;;;21.30;3.45;;;13.40;99.90;;;;;;10586602;27;20046;-70
2024/01/11 21:57:41;;;;;;;27.43;4.50;;;13.50;99.90;;;;;;10588001;27;20054;-68
2024/01/11 22:02:43;;;;;;;15.48;3.97;;;13.50;99.90;;;;;;10597066;27;20077;-69
2024/01/11 22:07:45;;;;;;;16.73;3.40;;;13.60;99.90;;;;;;10605813;27;20051;-69
2024/01/11 22:12:49;;;;;;;22.03;4.17;;;13.40;99.90;;;;;;10607910;27;20095;-70
2024/01/11 22:17:51;;;;;;;19.13;2.95;;;13.30;99.90;;;;;;10603933;27;20047;-69
2024/01/11 22:22:53;;;;;;;16.43;3.57;;;13.40;99.90;;;;;;10597275;27;20063;-69
2024/01/11 22:27:56;;;;;;;19.77;3.17;;;13.40;99.90;;;;;;10583615;27;21276;-69
2024/01/11 22:33:01;;;;;;;19.83;2.85;;;13.60;99.90;;;;;;10599009;27;20487;-68
2024/01/11 22:38:03;;;;;;;23.08;4.07;;;13.50;99.90;;;;;;10598280;27;20043;-70
2024/01/11 22:43:07;;;;;;;21.40;4.22;;;13.40;99.90;;;;;;10596172;27;20047;-71
2024/01/11 22:48:12;;;;;;;18.73;3.50;;;13.30;99.90;;;;;;10587727;27;20795;-69
2024/01/11 22:53:14;;;;;;;21.60;4.03;;;13.20;99.90;;;;;;10609748;27;20066;-68
2024/01/11 22:58:19;;;;;;;20.98;3.80;;;13.40;99.90;;;;;;10598867;27;20058;-68
2024/01/11 23:03:21;;;;;;;16.23;3.42;;;13.40;99.90;;;;;;10597995;27;20436;-69
2024/01/11 23:08:23;;;;;;;24.27;4.00;;;13.30;99.90;;;;;;10596768;27;20047;-69
2024/01/11 23:13:26;;;;;;;27.87;3.60;;;13.30;99.90;;;;;;10591896;27;20063;-70
2024/01/11 23:18:29;;;;;;;14.98;2.78;;;13.30;99.90;;;;;;10600083;27;20131;-70
2024/01/11 23:23:31;;;;;;;23.87;3.30;;;13.40;99.90;;;;;;10594437;27;20039;-69
2024/01/11 23:28:35;;;;;;;12.73;3.20;;;13.30;99.90;;;;;;10596772;27;20054;-69
2024/01/11 23:33:38;;;;;;;28.10;3.72;;;13.30;99.90;;;;;;10592450;27;20781;-70
2024/01/11 23:38:40;;;;;;;19.93;4.40;;;13.30;99.90;;;;;;10590323;27;20887;-69
2024/01/11 23:43:44;;;;;;;16.05;2.80;;;13.30;99.90;;;;;;10576515;27;20055;-70
2024/01/11 23:48:46;;;;;;;17.63;3.20;;;13.20;99.90;;;;;;10598003;27;20227;-69
2024/01/11 23:53:48;;;;;;;24.02;4.20;;;13.20;99.90;;;;;;10591241;27;20083;-70
2024/01/11 23:58:51;;;;;;;21.50;3.27;;;13.30;99.90;;;;;;10594713;27;20059;-70
